createdAt,value
2023-06-07T00:00:19.991Z,15.48
2023-06-07T00:02:47.786Z,15.46
2023-06-07T00:05:15.698Z,15.47
2023-06-07T00:07:43.878Z,15.52
2023-06-07T00:10:13.598Z,15.58
2023-06-07T00:12:42.916Z,15.19
2023-06-07T00:15:11.210Z,15.50
2023-06-07T00:17:41.875Z,15.32
2023-06-07T00:20:11.072Z,15.45
2023-06-07T00:22:39.784Z,15.46
2023-06-07T00:25:08.273Z,15.47
2023-06-07T00:27:36.141Z,15.42
2023-06-07T00:30:06.386Z,15.47
2023-06-07T00:32:34.233Z,15.46
2023-06-07T00:35:01.787Z,15.30
2023-06-07T00:37:29.280Z,15.34
2023-06-07T00:39:56.825Z,15.15
2023-06-07T00:42:24.373Z,15.16
2023-06-07T00:44:52.019Z,15.08
2023-06-07T00:47:20.905Z,15.22
2023-06-07T00:49:49.965Z,15.29
2023-06-07T00:52:18.721Z,14.20
2023-06-07T00:54:46.709Z,14.46
2023-06-07T00:57:16.742Z,14.85
2023-06-07T00:59:45.057Z,15.11
2023-06-07T01:02:16.047Z,14.15
2023-06-07T01:04:45.448Z,14.43
2023-06-07T01:07:13.518Z,14.43
2023-06-07T01:09:41.265Z,14.47
2023-06-07T01:12:15.724Z,14.76
2023-06-07T01:14:44.627Z,15.02
2023-06-07T01:17:13.840Z,15.18
2023-06-07T01:19:43.244Z,15.15
2023-06-07T01:22:15.189Z,15.08
2023-06-07T01:24:44.156Z,15.06
2023-06-07T01:27:12.242Z,14.58
2023-06-07T01:29:40.265Z,14.93
2023-06-07T01:32:10.477Z,14.84
2023-06-07T01:34:38.736Z,14.99
2023-06-07T01:37:07.104Z,14.86
2023-06-07T01:39:35.474Z,14.92
2023-06-07T01:42:05.892Z,14.86
2023-06-07T01:44:33.758Z,14.86
2023-06-07T01:47:01.459Z,14.85
2023-06-07T01:49:29.014Z,14.90
2023-06-07T01:51:56.699Z,14.79
2023-06-07T01:54:24.675Z,14.79
2023-06-07T01:57:05.370Z,14.81
2023-06-07T01:59:43.878Z,14.77
2023-06-07T02:02:19.176Z,14.81
2023-06-07T02:04:49.811Z,14.74
2023-06-07T02:07:24.723Z,14.69
2023-06-07T02:09:53.232Z,14.63
2023-06-07T02:12:22.255Z,14.62
2023-06-07T02:14:53.445Z,14.67
2023-06-07T02:17:21.505Z,14.63
2023-06-07T02:19:49.331Z,14.63
2023-06-07T02:22:17.025Z,14.65
2023-06-07T02:24:45.410Z,14.72
2023-06-07T02:27:13.993Z,14.63
2023-06-07T02:29:41.514Z,14.67
2023-06-07T02:32:10.917Z,14.61
2023-06-07T02:34:40.461Z,14.56
2023-06-07T02:37:07.970Z,14.57
2023-06-07T02:39:35.501Z,14.66
2023-06-07T02:42:03.089Z,14.64
2023-06-07T02:44:30.558Z,14.65
2023-06-07T02:46:58.378Z,14.71
2023-06-07T02:49:27.405Z,14.63
2023-06-07T02:51:55.076Z,14.65
2023-06-07T02:54:22.636Z,14.75
2023-06-07T02:56:50.107Z,14.77
2023-06-07T02:59:17.625Z,14.67
2023-06-07T03:01:45.100Z,14.68
2023-06-07T03:04:12.608Z,14.75
2023-06-07T03:06:42.304Z,14.70
2023-06-07T03:09:10.193Z,14.70
2023-06-07T03:11:37.658Z,14.73
2023-06-07T03:14:05.149Z,14.80
2023-06-07T03:16:33.202Z,14.75
2023-06-07T03:19:00.771Z,14.77
2023-06-07T03:21:28.444Z,14.76
2023-06-07T03:23:57.402Z,14.77
2023-06-07T03:26:25.037Z,14.70
2023-06-07T03:28:53.438Z,14.74
2023-06-07T03:31:21.120Z,14.76
2023-06-07T03:33:48.757Z,14.73
2023-06-07T03:36:21.845Z,14.81
2023-06-07T03:38:49.608Z,14.81
2023-06-07T03:41:18.464Z,14.83
2023-06-07T03:43:45.931Z,14.81
2023-06-07T03:46:13.485Z,14.76
2023-06-07T03:48:41.088Z,14.82
2023-06-07T03:51:08.693Z,14.85
2023-06-07T03:53:36.215Z,14.88
2023-06-07T03:56:04.289Z,14.85
2023-06-07T03:58:33.491Z,14.82
2023-06-07T04:01:01.092Z,14.87
2023-06-07T04:03:29.362Z,14.83
2023-06-07T04:05:56.970Z,14.86
2023-06-07T04:08:24.844Z,14.79
2023-06-07T04:10:53.796Z,14.80
2023-06-07T04:13:21.387Z,14.80
2023-06-07T04:15:50.441Z,14.78
2023-06-07T04:18:17.968Z,14.75
2023-06-07T04:20:45.488Z,14.83
2023-06-07T04:23:13.200Z,14.79
2023-06-07T04:25:40.900Z,14.83
2023-06-07T04:28:11.407Z,14.78
2023-06-07T04:30:42.206Z,14.83
2023-06-07T04:33:14.106Z,14.86
2023-06-07T04:35:43.793Z,14.89
2023-06-07T04:38:12.897Z,14.85
2023-06-07T04:40:42.258Z,14.89
2023-06-07T04:43:12.138Z,14.98
2023-06-07T04:45:42.476Z,14.98
2023-06-07T04:48:12.717Z,15.01
2023-06-07T04:50:42.269Z,15.08
2023-06-07T04:53:11.968Z,15.14
2023-06-07T04:55:42.722Z,15.26
2023-06-07T04:58:10.875Z,15.50
2023-06-07T05:00:40.157Z,15.47
2023-06-07T05:03:09.579Z,15.61
2023-06-07T05:05:39.142Z,15.76
2023-06-07T05:08:06.845Z,15.57
2023-06-07T05:10:34.496Z,15.43
2023-06-07T05:13:02.132Z,15.72
2023-06-07T05:15:29.667Z,15.96
2023-06-07T05:17:57.247Z,15.43
2023-06-07T05:20:26.097Z,15.68
2023-06-07T05:22:58.197Z,15.78
2023-06-07T05:25:25.849Z,16.07
2023-06-07T05:28:08.223Z,15.96
2023-06-07T05:30:40.944Z,15.58
2023-06-07T05:33:08.609Z,15.75
2023-06-07T05:35:36.167Z,16.11
2023-06-07T05:38:05.162Z,15.42
2023-06-07T05:40:32.682Z,15.49
2023-06-07T05:43:00.215Z,16.02
2023-06-07T05:45:27.702Z,15.95
2023-06-07T05:47:55.377Z,15.84
2023-06-07T05:50:24.982Z,15.83
2023-06-07T05:52:57.392Z,15.85
2023-06-07T05:55:28.059Z,15.95
2023-06-07T05:57:58.110Z,15.90
2023-06-07T06:00:25.855Z,15.86
2023-06-07T06:02:54.109Z,15.83
2023-06-07T06:05:24.588Z,15.88
2023-06-07T06:07:52.621Z,15.88
2023-06-07T06:10:20.125Z,15.84
2023-06-07T06:12:49.060Z,15.86
2023-06-07T06:15:16.553Z,15.90
2023-06-07T06:17:44.123Z,16.21
2023-06-07T06:20:13.282Z,16.22
2023-06-07T06:22:41.011Z,16.51
2023-06-07T06:25:09.932Z,16.74
2023-06-07T06:27:37.464Z,17.01
2023-06-07T06:30:08.082Z,17.17
2023-06-07T06:32:36.119Z,16.75
2023-06-07T06:35:04.218Z,16.78
2023-06-07T06:37:31.810Z,17.35
2023-06-07T06:39:59.306Z,17.32
2023-06-07T06:42:26.975Z,17.26
2023-06-07T06:44:54.448Z,17.27
2023-06-07T06:47:23.622Z,17.55
2023-06-07T06:49:52.702Z,17.31
2023-06-07T06:52:20.354Z,17.73
2023-06-07T06:54:47.842Z,17.66
2023-06-07T06:57:15.483Z,17.63
2023-06-07T06:59:43.015Z,17.38
2023-06-07T07:02:11.824Z,17.68
2023-06-07T07:04:40.957Z,17.78
2023-06-07T07:07:08.533Z,17.35
2023-06-07T07:09:36.322Z,17.85
2023-06-07T07:12:04.271Z,17.91
2023-06-07T07:14:31.738Z,18.00
2023-06-07T07:16:59.374Z,17.72
2023-06-07T07:19:27.010Z,17.99
2023-06-07T07:21:55.962Z,18.59
2023-06-07T07:24:23.508Z,18.59
2023-06-07T07:26:51.255Z,18.72
2023-06-07T07:29:18.794Z,18.04
2023-06-07T07:31:46.363Z,17.55
2023-06-07T07:34:15.264Z,17.54
2023-06-07T07:36:45.019Z,17.70
2023-06-07T07:39:14.214Z,17.84
2023-06-07T07:41:42.294Z,17.47
2023-06-07T07:44:09.886Z,17.68
2023-06-07T07:46:37.564Z,17.26
2023-06-07T07:49:05.121Z,17.76
2023-06-07T07:51:32.749Z,17.74
2023-06-07T07:54:01.248Z,17.88
2023-06-07T07:56:30.089Z,17.99
2023-06-07T07:58:57.665Z,18.19
2023-06-07T08:01:25.187Z,18.11
2023-06-07T08:03:53.095Z,17.90
2023-06-07T08:06:21.125Z,17.94
2023-06-07T08:08:48.803Z,18.10
2023-06-07T08:11:16.377Z,18.09
2023-06-07T08:13:45.516Z,18.66
2023-06-07T08:16:13.578Z,18.99
2023-06-07T08:18:41.033Z,18.61
2023-06-07T08:21:08.553Z,18.33
2023-06-07T08:23:37.501Z,18.44
2023-06-07T08:26:05.197Z,18.36
2023-06-07T08:28:32.752Z,18.24
2023-06-07T08:31:04.799Z,18.90
2023-06-07T08:33:32.363Z,18.64
2023-06-07T08:35:59.840Z,18.52
2023-06-07T08:38:27.421Z,18.50
2023-06-07T08:40:55.982Z,18.45
2023-06-07T08:43:23.728Z,19.19
2023-06-07T08:45:51.828Z,18.77
2023-06-07T08:48:22.069Z,18.87
2023-06-07T08:50:55.284Z,19.94
2023-06-07T08:53:29.141Z,19.27
2023-06-07T08:55:59.350Z,18.86
2023-06-07T08:58:28.818Z,18.85
2023-06-07T09:01:00.616Z,18.82
2023-06-07T09:03:29.679Z,18.80
2023-06-07T09:08:22.491Z,19.73
2023-06-07T09:10:50.075Z,20.00
2023-06-07T09:13:20.989Z,20.18
2023-06-07T09:15:50.460Z,20.26
2023-06-07T09:18:18.339Z,19.38
2023-06-07T09:20:47.390Z,19.67
2023-06-07T09:23:16.013Z,19.96
2023-06-07T09:25:45.580Z,20.21
2023-06-07T09:28:14.242Z,19.97
2023-06-07T09:30:55.698Z,20.78
2023-06-07T09:33:30.843Z,21.02
2023-06-07T09:36:07.762Z,20.74
2023-06-07T09:38:35.506Z,20.77
2023-06-07T09:41:06.242Z,21.29
2023-06-07T09:43:44.021Z,21.08
2023-06-07T09:46:12.019Z,21.28
2023-06-07T09:48:47.610Z,21.50
2023-06-07T09:51:17.119Z,21.20
2023-06-07T09:53:52.457Z,21.10
2023-06-07T09:56:21.209Z,21.29
2023-06-07T09:58:50.593Z,21.24
2023-06-07T10:01:33.827Z,21.59
2023-06-07T10:04:03.592Z,21.77
2023-06-07T10:06:39.611Z,21.45
2023-06-07T10:09:08.789Z,21.80
2023-06-07T10:11:38.677Z,21.80
2023-06-07T10:14:08.612Z,21.24
2023-06-07T10:16:38.342Z,21.33
2023-06-07T10:19:13.556Z,21.75
2023-06-07T10:21:46.581Z,22.11
2023-06-07T10:24:20.269Z,21.99
2023-06-07T10:26:54.734Z,21.50
2023-06-07T10:29:30.751Z,21.55
2023-06-07T10:32:07.742Z,21.31
2023-06-07T10:34:37.300Z,20.89
2023-06-07T10:37:08.292Z,21.90
2023-06-07T10:39:36.490Z,21.32
2023-06-07T10:42:04.518Z,21.42
2023-06-07T10:44:32.676Z,21.87
2023-06-07T10:47:25.915Z,22.39
2023-06-07T10:49:54.685Z,22.23
2023-06-07T10:52:24.055Z,22.21
2023-06-07T10:54:52.911Z,22.26
2023-06-07T10:57:33.853Z,21.93
2023-06-07T11:00:31.170Z,21.78
2023-06-07T11:03:36.663Z,21.35
2023-06-07T11:06:06.506Z,21.38
2023-06-07T11:08:37.680Z,21.46
2023-06-07T11:11:27.140Z,21.35
2023-06-07T11:14:14.212Z,21.59
2023-06-07T11:16:42.598Z,21.63
2023-06-07T11:19:14.147Z,21.44
2023-06-07T11:22:06.329Z,21.89
2023-06-07T11:24:37.863Z,21.88
2023-06-07T11:27:11.785Z,21.65
2023-06-07T11:29:40.718Z,21.97
2023-06-07T11:32:11.115Z,22.25
2023-06-07T11:34:38.927Z,22.47
2023-06-07T11:37:17.717Z,23.08
2023-06-07T11:39:47.259Z,23.48
2023-06-07T11:42:14.860Z,22.59
2023-06-07T11:44:43.250Z,23.13
2023-06-07T11:47:11.193Z,23.46
2023-06-07T11:49:42.145Z,23.55
2023-06-07T11:52:10.487Z,22.28
2023-06-07T11:54:44.018Z,21.98
2023-06-07T11:57:12.965Z,22.90
2023-06-07T11:59:42.041Z,23.05
2023-06-07T12:02:10.514Z,23.03
2023-06-07T12:04:38.340Z,22.54
2023-06-07T12:07:21.264Z,22.81
2023-06-07T12:09:51.376Z,23.30
2023-06-07T12:12:20.443Z,23.34
2023-06-07T12:14:52.404Z,23.12
2023-06-07T12:17:20.547Z,23.21
2023-06-07T12:19:48.108Z,23.60
2023-06-07T12:22:15.893Z,23.49
2023-06-07T12:24:43.503Z,23.93
2023-06-07T12:27:13.995Z,23.62
2023-06-07T12:29:43.881Z,23.69
2023-06-07T12:32:12.688Z,23.76
2023-06-07T12:34:45.392Z,24.06
2023-06-07T12:37:13.952Z,23.78
2023-06-07T12:39:41.782Z,24.02
2023-06-07T12:42:09.564Z,23.91
2023-06-07T12:44:37.197Z,23.92
2023-06-07T12:47:06.603Z,24.25
2023-06-07T12:49:34.269Z,24.23
2023-06-07T12:52:03.729Z,24.63
2023-06-07T12:54:31.294Z,23.89
2023-06-07T12:56:58.945Z,24.30
2023-06-07T12:59:26.565Z,24.09
2023-06-07T13:01:54.286Z,23.80
2023-06-07T13:04:24.193Z,23.35
2023-06-07T13:06:51.826Z,22.88
2023-06-07T13:09:20.001Z,23.02
2023-06-07T13:11:47.927Z,23.77
2023-06-07T13:14:17.560Z,24.06
2023-06-07T13:16:45.328Z,24.04
2023-06-07T13:19:12.980Z,24.06
2023-06-07T13:21:43.220Z,24.41
2023-06-07T13:24:10.920Z,23.90
2023-06-07T13:26:38.511Z,23.85
2023-06-07T13:29:06.082Z,24.01
2023-06-07T13:31:33.638Z,24.74
2023-06-07T13:34:03.022Z,24.97
2023-06-07T13:36:30.518Z,24.60
2023-06-07T13:38:59.914Z,24.51
2023-06-07T13:41:30.396Z,24.74
2023-06-07T13:44:15.577Z,24.75
2023-06-07T13:46:45.509Z,24.58
2023-06-07T13:49:13.882Z,24.53
2023-06-07T13:51:41.589Z,24.19
2023-06-07T13:54:10.537Z,24.97
2023-06-07T13:56:38.168Z,24.58
2023-06-07T13:59:05.748Z,24.68
2023-06-07T14:01:33.595Z,24.36
2023-06-07T14:04:03.766Z,23.94
2023-06-07T14:06:31.466Z,24.07
2023-06-07T14:08:59.033Z,24.14
2023-06-07T14:11:28.290Z,24.46
2023-06-07T14:13:55.877Z,24.21
2023-06-07T14:16:24.918Z,23.66
2023-06-07T14:18:53.997Z,23.52
2023-06-07T14:21:21.554Z,23.22
2023-06-07T14:23:49.185Z,23.30
2023-06-07T14:26:16.887Z,23.31
2023-06-07T14:28:45.806Z,23.10
2023-06-07T14:31:14.083Z,23.48
2023-06-07T14:33:41.684Z,23.44
2023-06-07T14:36:09.186Z,23.84
2023-06-07T14:38:37.772Z,24.01
2023-06-07T14:41:05.435Z,23.92
2023-06-07T14:43:32.952Z,23.74
2023-06-07T14:46:01.879Z,23.96
2023-06-07T14:48:29.399Z,24.16
2023-06-07T14:50:57.054Z,24.01
2023-06-07T14:53:24.626Z,24.30
2023-06-07T14:55:52.224Z,24.40
2023-06-07T14:58:19.727Z,24.46
2023-06-07T15:00:47.225Z,24.68
2023-06-07T15:03:17.127Z,24.39
2023-06-07T15:05:44.771Z,24.62
2023-06-07T15:08:12.259Z,24.55
2023-06-07T15:10:39.722Z,25.00
2023-06-07T15:13:07.225Z,24.76
2023-06-07T15:15:34.878Z,24.90
2023-06-07T15:18:02.434Z,25.08
2023-06-07T15:20:31.282Z,24.64
2023-06-07T15:22:58.811Z,24.64
2023-06-07T15:25:26.674Z,24.87
2023-06-07T15:27:54.165Z,24.76
2023-06-07T15:30:21.689Z,24.61
2023-06-07T15:32:49.205Z,24.66
2023-06-07T15:35:16.758Z,24.69
2023-06-07T15:37:45.746Z,24.84
2023-06-07T15:40:13.478Z,24.82
2023-06-07T15:42:40.825Z,24.73
2023-06-07T15:45:09.172Z,24.60
2023-06-07T15:47:36.954Z,24.68
2023-06-07T15:50:04.807Z,24.74
2023-06-07T15:52:32.453Z,24.77
2023-06-07T15:55:01.287Z,24.92
2023-06-07T15:57:28.883Z,24.64
2023-06-07T15:59:56.401Z,24.60
2023-06-07T16:02:23.976Z,24.73
2023-06-07T16:04:51.497Z,24.61
2023-06-07T16:07:19.054Z,24.77
2023-06-07T16:09:46.544Z,24.68
2023-06-07T16:12:15.825Z,24.75
2023-06-07T16:14:44.192Z,24.97
2023-06-07T16:17:11.766Z,24.94
2023-06-07T16:19:39.599Z,24.90
2023-06-07T16:22:09.084Z,24.78
2023-06-07T16:24:36.563Z,24.77
2023-06-07T16:27:04.322Z,24.72
2023-06-07T16:29:33.037Z,24.38
2023-06-07T16:32:00.523Z,24.16
2023-06-07T16:34:28.024Z,24.23
2023-06-07T16:36:55.554Z,24.55
2023-06-07T16:39:23.105Z,24.55
2023-06-07T16:41:50.597Z,24.14
2023-06-07T16:44:19.132Z,24.00
2023-06-07T16:46:48.571Z,24.08
2023-06-07T16:49:16.287Z,23.72
2023-06-07T16:51:43.833Z,23.85
2023-06-07T16:54:12.147Z,23.34
2023-06-07T16:56:39.672Z,23.33
2023-06-07T16:59:07.597Z,23.48
2023-06-07T17:01:36.526Z,23.31
2023-06-07T17:04:05.903Z,23.22
2023-06-07T17:06:33.525Z,23.20
2023-06-07T17:09:01.018Z,23.22
2023-06-07T17:11:28.619Z,23.45
2023-06-07T17:13:56.437Z,23.41
2023-06-07T17:16:24.071Z,23.28
2023-06-07T17:18:51.616Z,23.20
2023-06-07T17:21:20.706Z,23.21
2023-06-07T17:23:48.383Z,23.19
2023-06-07T17:26:15.974Z,23.06
2023-06-07T17:28:43.512Z,23.20
2023-06-07T17:31:11.779Z,23.02
2023-06-07T17:33:41.706Z,22.78
2023-06-07T17:36:09.941Z,22.93
2023-06-07T17:38:38.897Z,22.97
2023-06-07T17:41:06.516Z,22.82
2023-06-07T17:43:34.101Z,22.94
2023-06-07T17:46:01.675Z,22.91
2023-06-07T17:48:29.288Z,22.70
2023-06-07T17:50:56.875Z,22.62
2023-06-07T17:53:24.426Z,22.64
2023-06-07T17:55:53.245Z,22.47
2023-06-07T17:58:20.852Z,22.45
2023-06-07T18:00:48.352Z,22.37
2023-06-07T18:03:19.938Z,22.43
2023-06-07T18:05:47.808Z,22.45
2023-06-07T18:08:15.733Z,22.40
2023-06-07T18:10:43.273Z,22.27
2023-06-07T18:13:12.145Z,22.27
2023-06-07T18:15:39.680Z,22.27
2023-06-07T18:18:07.276Z,22.19
2023-06-07T18:20:34.856Z,22.11
2023-06-07T18:23:04.782Z,22.02
2023-06-07T18:25:32.809Z,22.04
2023-06-07T18:28:00.323Z,22.04
2023-06-07T18:30:29.399Z,21.94
2023-06-07T18:35:24.873Z,21.88
2023-06-07T18:37:52.376Z,21.76
2023-06-07T18:40:22.350Z,21.80
2023-06-07T18:42:49.980Z,21.77
2023-06-07T18:45:17.779Z,21.85
2023-06-07T18:47:46.978Z,21.78
2023-06-07T18:50:14.669Z,21.63
2023-06-07T18:52:42.207Z,21.43
2023-06-07T18:55:10.354Z,21.54
2023-06-07T18:57:38.393Z,21.45
2023-06-07T19:00:06.476Z,21.19
2023-06-07T19:02:34.285Z,21.33
2023-06-07T19:05:03.225Z,21.20
2023-06-07T19:07:30.996Z,21.29
2023-06-07T19:09:58.559Z,21.19
2023-06-07T19:12:28.962Z,21.31
2023-06-07T19:14:56.988Z,21.08
2023-06-07T19:17:24.792Z,21.32
2023-06-07T19:19:52.202Z,21.38
2023-06-07T19:22:21.076Z,21.48
2023-06-07T19:24:48.622Z,21.17
2023-06-07T19:27:16.707Z,20.84
2023-06-07T19:29:44.245Z,20.58
2023-06-07T19:32:14.936Z,20.91
2023-06-07T19:34:42.438Z,20.71
2023-06-07T19:37:09.930Z,20.70
2023-06-07T19:39:39.092Z,20.71
2023-06-07T19:42:09.175Z,20.71
2023-06-07T19:44:38.591Z,20.63
2023-06-07T19:47:06.758Z,20.62
2023-06-07T19:49:34.376Z,20.55
2023-06-07T19:52:03.726Z,20.57
2023-06-07T19:54:31.818Z,20.54
2023-06-07T19:57:00.711Z,20.81
2023-06-07T19:59:28.308Z,20.48
2023-06-07T20:01:56.971Z,20.25
2023-06-07T20:04:24.522Z,20.30
2023-06-07T20:06:52.035Z,20.29
2023-06-07T20:09:19.519Z,20.18
2023-06-07T20:11:47.023Z,20.30
2023-06-07T20:14:17.174Z,20.26
2023-06-07T20:16:44.744Z,20.36
2023-06-07T20:19:12.266Z,20.38
2023-06-07T20:21:39.800Z,20.18
2023-06-07T20:24:07.473Z,20.47
2023-06-07T20:26:38.005Z,20.20
2023-06-07T20:29:05.695Z,20.30
2023-06-07T20:31:34.610Z,20.69
2023-06-07T20:34:02.191Z,20.49
2023-06-07T20:36:29.727Z,20.72
2023-06-07T20:38:57.284Z,20.65
2023-06-07T20:41:24.782Z,20.47
2023-06-07T20:43:52.259Z,20.65
2023-06-07T20:46:19.846Z,20.65
2023-06-07T20:48:48.726Z,20.59
2023-06-07T20:51:16.486Z,20.59
2023-06-07T20:53:44.167Z,20.58
2023-06-07T20:56:11.796Z,20.55
2023-06-07T20:58:39.300Z,19.64
2023-06-07T21:01:06.867Z,19.88
2023-06-07T21:03:34.697Z,19.82
2023-06-07T21:06:03.546Z,19.82
2023-06-07T21:08:31.073Z,20.14
2023-06-07T21:10:58.652Z,20.11
2023-06-07T21:13:26.366Z,19.57
2023-06-07T21:15:53.925Z,19.20
2023-06-07T21:18:21.456Z,19.58
2023-06-07T21:20:48.987Z,19.67
2023-06-07T21:23:17.893Z,19.84
2023-06-07T21:25:45.515Z,19.79
2023-06-07T21:28:13.061Z,19.92
2023-06-07T21:30:40.686Z,19.89
2023-06-07T21:33:08.324Z,19.79
2023-06-07T21:35:35.869Z,20.11
2023-06-07T21:38:03.455Z,19.89
2023-06-07T21:40:32.447Z,20.17
2023-06-07T21:42:59.974Z,20.19
2023-06-07T21:45:28.156Z,19.90
2023-06-07T21:47:55.895Z,20.19
2023-06-07T21:50:23.486Z,20.14
2023-06-07T21:52:51.859Z,19.42
2023-06-07T21:55:19.483Z,19.86
2023-06-07T21:57:48.366Z,19.89
2023-06-07T22:00:16.553Z,19.23
2023-06-07T22:02:44.259Z,19.81
2023-06-07T22:05:11.893Z,19.94
2023-06-07T22:07:41.555Z,19.99
2023-06-07T22:10:10.022Z,19.83
2023-06-07T22:12:38.256Z,19.88
2023-06-07T22:15:08.979Z,19.61
2023-06-07T22:17:37.591Z,19.83
2023-06-07T22:20:07.242Z,19.89
2023-06-07T22:22:35.402Z,19.82
2023-06-07T22:25:03.034Z,19.80
2023-06-07T22:27:33.892Z,19.78
2023-06-07T22:30:01.424Z,19.41
2023-06-07T22:32:30.748Z,19.20
2023-06-07T22:35:05.094Z,19.55
2023-06-07T22:37:38.003Z,19.62
2023-06-07T22:40:07.541Z,19.54
2023-06-07T22:42:35.713Z,19.61
2023-06-07T22:45:03.780Z,19.49
2023-06-07T22:47:33.342Z,19.46
2023-06-07T22:50:01.753Z,19.42
2023-06-07T22:52:34.225Z,19.46
2023-06-07T22:55:01.906Z,19.42
2023-06-07T22:57:29.546Z,19.42
2023-06-07T22:59:57.186Z,19.38
2023-06-07T23:02:24.719Z,19.32
2023-06-07T23:04:53.634Z,19.29
2023-06-07T23:07:21.921Z,19.26
2023-06-07T23:09:49.939Z,19.24
2023-06-07T23:12:17.400Z,19.28
2023-06-07T23:14:49.487Z,19.22
2023-06-07T23:17:17.665Z,19.19
2023-06-07T23:19:46.552Z,19.11
2023-06-07T23:22:17.967Z,19.19
2023-06-07T23:24:49.141Z,19.09
2023-06-07T23:27:16.845Z,19.14
2023-06-07T23:29:44.401Z,19.06
2023-06-07T23:32:12.267Z,19.00
2023-06-07T23:34:40.121Z,18.91
2023-06-07T23:37:07.692Z,19.03
2023-06-07T23:39:36.584Z,18.95
2023-06-07T23:42:04.563Z,18.91
2023-06-07T23:44:32.334Z,18.92
2023-06-07T23:47:00.561Z,18.93
2023-06-07T23:49:35.018Z,18.87
2023-06-07T23:52:02.773Z,18.66
2023-06-07T23:54:30.402Z,18.79
2023-06-07T23:56:59.281Z,18.74
2023-06-07T23:59:26.863Z,18.86
